Hebburn, United Kingdom
Current Conditions -  °F | °C
As of 3:50 AM on Saturday 20 Dec 2014 (Local Time) from EGNT Reporting Station
Few Clouds Few Clouds  
Wind Chill: 32°   Ceiling: Unl
Heat Index: 43°   Visibility: 6mi
Dew Point: 37°   Wind: 29mph
Humidity: 81%   Direction: 270°W
Pressure: 29.83"   Gusts: 40mph
Location:  54.97°N, 1.52°W
Report Text: EGNT 200350Z 27025G35KT 9999 FEW018 06/03 Q1010
Loading
Personal Weather Stations






























Interactive Weather Map New forecast layout! Learn more

10-Day Weather Forecast

Advertisements
Track Severe Weather on mobile